Connecticut Logo

Bridgeport, CT Single Family Real Estate Listings

369 Total Real Estate Listings * Click on table heading to sort
Date Posted Property Type Style Address Price Living Area Lot Size Price/Sq Ft.
2017-12-15 Single Family Ranch 505 Garfield Bridgeport, CT 06606 $174,900 2,027 sq. ft. 4,356 sq. ft. $86
2017-12-14 Single Family Colonial 1407 Wood Bridgeport, CT 06604 $185,000 2,475 sq. ft. 4,792 sq. ft. $75
2017-12-14 Single Family Half Duplex 408 East Bridgeport, CT 06610 $100,000 1,745 sq. ft. 2,614 sq. ft. $57
2017-12-14 Single Family Half Duplex 310 Willow Bridgeport, CT 06610 $119,900 1,720 sq. ft. 2,614 sq. ft. $70
2017-12-13 Single Family Colonial 66 Lorraine Bridgeport, CT 06604 $159,000 1,634 sq. ft. 4,356 sq. ft. $97
2017-12-13 Single Family Victorian 361 Barnum Bridgeport, CT 06608 $400,000 7,614 sq. ft. 16,988 sq. ft. $53
2017-12-12 Single Family Cape Cod 99 Pitt Bridgeport, CT 06606 $75,000 1,496 sq. ft. 4,792 sq. ft. $50
2017-12-11 Single Family Cape Cod 158 Hillcrest Bridgeport, CT 06606 $179,900 1,920 sq. ft. 4,792 sq. ft. $94
2017-12-11 Single Family Cape Cod 619 Birmingham Bridgeport, CT 06606 $235,000 1,909 sq. ft. 4,792 sq. ft. $123
2017-12-11 Single Family Cape Cod 779 Fairview Bridgeport, CT 06606 $199,900 2,041 sq. ft. 5,227 sq. ft. $98
2017-12-10 Single Family Ranch 312 Goddard Bridgeport, CT 06610 $114,400 1,092 sq. ft. 4,792 sq. ft. $105
2017-12-08 Single Family Colonial 45 Alpine Bridgeport, CT 06610 $229,000 2,248 sq. ft. 7,405 sq. ft. $102
2017-12-07 Single Family Colonial 412 Dewey Bridgeport, CT 06605 $165,000 1,326 sq. ft. 3,485 sq. ft. $124
2017-12-07 Single Family Cape Cod 52 Woodside Bridgeport, CT 06606 $149,900 1,806 sq. ft. 6,534 sq. ft. $83
2017-12-07 Single Family Half Duplex; Normandy 409 East Bridgeport, CT 06610 $109,900 2,320 sq. ft. 2,614 sq. ft. $47
2017-12-07 Single Family Ranch 25 Up Bridgeport, CT 06606 $229,000 1,117 sq. ft. 4,792 sq. ft. $205
2017-12-06 Single Family Raised Ranch 286 Gilman Bridgeport, CT 06605 $259,900 1,568 sq. ft. 11,326 sq. ft. $166
2017-12-06 Single Family Cape Cod 298 Thorme Bridgeport, CT 06606 $165,000 2,924 sq. ft. 6,098 sq. ft. $56
2017-12-06 Single Family Raised Ranch 435 Dogwood Bridgeport, CT 06606 $271,500 1,624 sq. ft. 13,504 sq. ft. $167
2017-12-06 Single Family Cape Cod 618 Clark Bridgeport, CT 06606 $214,900 1,164 sq. ft. 4,792 sq. ft. $185
2017-12-06 Single Family Raised Ranch 325 Jefferson Bridgeport, CT 06607 $139,900 1,210 sq. ft. 4,792 sq. ft. $116
2017-12-06 Single Family Contemporary 101 Anchorage Bridgeport, CT 06605 $995,000 4,885 sq. ft. 22,651 sq. ft. $204
2017-12-05 Single Family Colonial 841 Noble Bridgeport, CT 06608 $139,999 2,594 sq. ft. 5,663 sq. ft. $54
2017-12-04 Single Family Cape Cod 149 Harmony Bridgeport, CT 06606 $124,800 1,292 sq. ft. 5,227 sq. ft. $97
2017-12-01 Single Family Cape Cod 280 Cleveland Bridgeport, CT 06604 $325,000 2,752 sq. ft. 4,792 sq. ft. $118
2017-12-01 Single Family Cape Cod 748 Huntington Bridgeport, CT 06610 $135,000 1,614 sq. ft. 9,148 sq. ft. $84
2017-11-30 Single Family Colonial; Half Duplex 432 William Bridgeport, CT 06608 $99,000 1,751 sq. ft. 2,178 sq. ft. $57
2017-11-30 Single Family Colonial; Half Duplex 426 William Bridgeport, CT 06608 $99,000 1,751 sq. ft. 2,614 sq. ft. $57
2017-11-30 Single Family Colonial 216 Scofield Bridgeport, CT 06605 $275,000 2,577 sq. ft. 4,792 sq. ft. $107
2017-11-29 Single Family Colonial 128 Pierce Bridgeport, CT 06604 $198,500 1,973 sq. ft. 4,792 sq. ft. $101
2017-11-28 Single Family Colonial 92 Williamsburg Bridgeport, CT 06606 $229,000 2,472 sq. ft. 9,148 sq. ft. $93
2017-11-24 Single Family Cape Cod 131 Birdsey Bridgeport, CT 06610 $199,900 2,325 sq. ft. 5,663 sq. ft. $86
2017-11-24 Single Family Cape Cod 337 Alba Bridgeport, CT 06606 $170,000 1,254 sq. ft. 4,792 sq. ft. $136
2017-11-21 Single Family Half Duplex 26 Velvet Bridgeport, CT 06610 $149,000 1,932 sq. ft. 2,614 sq. ft. $77
2017-11-21 Single Family Split Level 103 Clark Bridgeport, CT 06606 $267,740 2,080 sq. ft. 4,792 sq. ft. $129
2017-11-21 Single Family Cape Cod 247 Seaside Bridgeport, CT 06605 $369,900 2,060 sq. ft. 6,098 sq. ft. $180
2017-11-20 Single Family Ranch 153 Marigold Bridgeport, CT 06606 $214,000 1,384 sq. ft. 3,485 sq. ft. $155
2017-11-20 Single Family Cape Cod 256 Jackson Bridgeport, CT 06606 $199,400 1,560 sq. ft. 4,792 sq. ft. $128
2017-11-20 Single Family Colonial 1500 Norman Bridgeport, CT 06604 $174,900 3,520 sq. ft. 5,227 sq. ft. $50
2017-11-18 Single Family Colonial 319 Cleveland Bridgeport, CT 06604 $224,900 2,384 sq. ft. 6,098 sq. ft. $94
2017-11-17 Single Family Row House 295 Hanover Bridgeport, CT 06605 $109,900 1,338 sq. ft. 1,307 sq. ft. $82
2017-11-16 Single Family Raised Ranch 300 Balmforth Bridgeport, CT 06605 $399,000 3,187 sq. ft. 14,375 sq. ft. $125
2017-11-16 Single Family Raised Ranch 314 Huntington Bridgeport, CT 06610 $202,000 906 sq. ft. 10,019 sq. ft. $223
2017-11-16 Single Family Colonial 87 Seabright Bridgeport, CT 06605 $729,000 1,939 sq. ft. 4,356 sq. ft. $376
2017-11-15 Single Family Colonial 132 Rennell Bridgeport, CT 06604 $149,900 1,499 sq. ft. 3,485 sq. ft. $100
2017-11-14 Single Family Cape Cod 49 Cloverhill Bridgeport, CT 06606 $239,900 1,984 sq. ft. 4,792 sq. ft. $121
2017-11-13 Single Family Colonial 361 Gurdon Bridgeport, CT 06606 $220,000 1,898 sq. ft. 6,970 sq. ft. $116
2017-11-13 Single Family Colonial 5 Yarrington Bridgeport, CT 06607 $100,700 1,845 sq. ft. 4,792 sq. ft. $55
2017-11-10 Single Family Ranch 1867 Chopsey Hill Bridgeport, CT 06606 $169,000 3,144 sq. ft. 17,860 sq. ft. $54
2017-11-08 Single Family Cape Cod 360 Polk Bridgeport, CT 06606 $189,000 1,536 sq. ft. 4,792 sq. ft. $123
2017-11-08 Single Family Ranch 60 Duane Bridgeport, CT 06610 $199,900 1,848 sq. ft. 13,504 sq. ft. $108
2017-11-07 Single Family Cape Cod 66 Glenbrook Bridgeport, CT 06610 $229,900 2,040 sq. ft. 7,405 sq. ft. $113
2017-11-07 Single Family Cape Cod 38 Rusling Bridgeport, CT 06604 $199,900 3,286 sq. ft. 7,841 sq. ft. $61
2017-11-07 Single Family Ranch 7 Eastwood Bridgeport, CT 06606 $259,900 2,244 sq. ft. 9,583 sq. ft. $116
2017-11-02 Single Family Cape Cod 25 Broadway Bridgeport, CT 06606 $170,000 1,152 sq. ft. 4,792 sq. ft. $148
2017-11-01 Single Family Cape Cod 28 Lakeside Bridgeport, CT 06606 $235,000 1,248 sq. ft. 9,148 sq. ft. $188
2017-11-01 Single Family Colonial 261 Coleman Bridgeport, CT 06604 $109,900 1,502 sq. ft. 2,614 sq. ft. $73
2017-10-31 Single Family Cape Cod 104 Douglas Bridgeport, CT 06606 $199,000 1,188 sq. ft. 4,792 sq. ft. $168
2017-10-28 Single Family Half Duplex 112 Horace Bridgeport, CT 06610 $159,000 2,400 sq. ft. 2,178 sq. ft. $66
2017-10-28 Single Family Colonial 600 Huntington Bridgeport, CT 06610 $249,000 2,500 sq. ft. 7,405 sq. ft. $100
2017-10-27 Single Family Half Duplex 303 Remington Bridgeport, CT 06610 $51,300 2,380 sq. ft. 2,178 sq. ft. $22
2017-10-25 Single Family Colonial 99 Alfred Bridgeport, CT 06605 $300,000 3,045 sq. ft. 4,792 sq. ft. $99
2017-10-24 Single Family Bungalow 125 Palisade Bridgeport, CT 06610 $98,580 1,515 sq. ft. 4,792 sq. ft. $65
2017-10-22 Single Family Half Duplex 250 Hansen Bridgeport, CT 06605 $185,000 1,680 sq. ft. 2,614 sq. ft. $110
2017-10-20 Single Family Ranch 194 Wade Bridgeport, CT 06604 $175,000 2,143 sq. ft. 7,405 sq. ft. $82
2017-10-19 Single Family Cape Cod 484 Dexter Bridgeport, CT 06606 $179,900 1,464 sq. ft. 14,810 sq. ft. $123
2017-10-19 Single Family Cape Cod 41 Berkeley Bridgeport, CT 06610 $169,000 2,071 sq. ft. 4,792 sq. ft. $82
2017-10-19 Single Family Colonial 536 Mckinley Bridgeport, CT 06604 $239,000 3,332 sq. ft. 6,534 sq. ft. $72
2017-10-16 Single Family Bungalow 324 Harlem Bridgeport, CT 06606 $139,900 2,799 sq. ft. 8,276 sq. ft. $50
2017-10-15 Single Family Colonial 453 Amsterdam Bridgeport, CT 06606 $229,900 2,478 sq. ft. 7,405 sq. ft. $93
2017-10-14 Single Family Ranch 28 Woodmere Bridgeport, CT 06610 $224,900 1,200 sq. ft. 9,148 sq. ft. $187
2017-10-13 Single Family Colonial 165 Harborview Bridgeport, CT 06605 $339,000 1,533 sq. ft. 4,792 sq. ft. $221
2017-10-13 Single Family Ranch 112 Ochsner Bridgeport, CT 06606 $289,900 1,194 sq. ft. 9,583 sq. ft. $243
2017-10-12 Single Family Colonial 45 Seaside Bridgeport, CT 06605 $289,900 4,390 sq. ft. 10,890 sq. ft. $66
2017-10-11 Single Family Colonial 640 Laurel Bridgeport, CT 06605 $177,000 2,080 sq. ft. 3,049 sq. ft. $85
2017-10-11 Single Family Cape Cod 91 Silver Bridgeport, CT 06610 $269,900 2,304 sq. ft. 51,401 sq. ft. $117
2017-10-10 Single Family Colonial; Half Duplex 439 Pond Bridgeport, CT 06606 $259,000 3,380 sq. ft. 6,098 sq. ft. $77
2017-10-09 Single Family Cape Cod 2997 Old Town Bridgeport, CT 06606 $299,900 1,949 sq. ft. 10,019 sq. ft. $154
2017-10-09 Single Family Colonial 1153 Capitol Bridgeport, CT 06606 $289,900 2,656 sq. ft. 4,792 sq. ft. $109
2017-10-09 Single Family Ranch 343 Sailors Bridgeport, CT 06605 $498,000 4,203 sq. ft. 13,939 sq. ft. $118
2017-10-09 Single Family Colonial 816 North Bridgeport, CT 06606 $280,000 3,515 sq. ft. 7,405 sq. ft. $80
2017-10-08 Single Family Colonial; Half Duplex 437 Pond Bridgeport, CT 06606 $259,000 3,380 sq. ft. 6,098 sq. ft. $77
2017-10-06 Single Family Colonial 298 Old Battery Bridgeport, CT 06605 $598,300 2,880 sq. ft. 26,136 sq. ft. $208
2017-10-06 Single Family Cape Cod 2701 Park Bridgeport, CT 06604 $269,000 2,330 sq. ft. 24,829 sq. ft. $115
2017-10-05 Single Family Ranch 94 Platt Bridgeport, CT 06606 $160,000 1,138 sq. ft. 8,276 sq. ft. $141
2017-10-05 Single Family Cape Cod 244 Seaside Bridgeport, CT 06605 $224,900 1,580 sq. ft. 4,792 sq. ft. $142
2017-10-04 Single Family Cape Cod 70 Trumbull Bridgeport, CT 06606 $170,000 2,566 sq. ft. 4,792 sq. ft. $66
2017-10-04 Single Family Colonial 26 Brooklawn Bridgeport, CT 06604 $256,500 3,472 sq. ft. 11,761 sq. ft. $74
2017-10-03 Single Family Colonial 95 Seabright Bridgeport, CT 06605 $689,000 2,105 sq. ft. 4,792 sq. ft. $327
2017-10-02 Single Family Ranch 2465 Madison Bridgeport, CT 06606 $167,500 1,509 sq. ft. 5,663 sq. ft. $111
2017-09-30 Single Family Row House 304 Dover Bridgeport, CT 06610 $94,950 1,524 sq. ft. 1,742 sq. ft. $62
2017-09-29 Single Family Colonial 218 Beardsley Bridgeport, CT 06607 $179,000 2,374 sq. ft. 6,098 sq. ft. $75
2017-09-27 Single Family Colonial 614 Earl Bridgeport, CT 06606 $184,900 2,244 sq. ft. 4,792 sq. ft. $82
2017-09-27 Single Family Raised Ranch 293 Thorme Bridgeport, CT 06606 $150,000 1,184 sq. ft. 7,405 sq. ft. $127
2017-09-26 Single Family Ranch 1405 Chopsey Hill Bridgeport, CT 06606 $233,900 1,676 sq. ft. 10,454 sq. ft. $140
2017-09-26 Single Family Colonial 591 Newfield Bridgeport, CT 06607 $49,000 1,560 sq. ft. 3,485 sq. ft. $31
2017-09-26 Single Family Colonial 353 Jackson Bridgeport, CT 06606 $180,000 2,307 sq. ft. 6,534 sq. ft. $78
2017-09-25 Single Family Colonial 114 Eaton Bridgeport, CT 06604 $219,900 2,004 sq. ft. 4,792 sq. ft. $110
2017-09-25 Single Family Cape Cod 62 Woodside Bridgeport, CT 06606 $209,900 1,877 sq. ft. 8,276 sq. ft. $112
2017-09-22 Single Family Raised Ranch 79 Tesiny Bridgeport, CT 06606 $315,000 2,598 sq. ft. 12,197 sq. ft. $121
2017-09-21 Single Family Colonial; Half Duplex 116 Hanover Bridgeport, CT 06604 $129,900 2,919 sq. ft. $44
2017-09-19 Single Family Colonial 440 Hilltop Bridgeport, CT 06605 $800,000 5,202 sq. ft. 29,621 sq. ft. $154
2017-09-19 Single Family Cape Cod 160 Hawthorne Bridgeport, CT 06610 $209,000 3,040 sq. ft. 12,197 sq. ft. $69
2017-09-19 Single Family Colonial 100 Jewett Bridgeport, CT 06606 $199,000 2,016 sq. ft. 8,276 sq. ft. $99
2017-09-15 Single Family Colonial 62 Clifford Bridgeport, CT 06607 $301,000 1,746 sq. ft. 3,049 sq. ft. $172
2017-09-15 Single Family 143 Clifford Bridgeport, CT 06607 $145,000 2,700 sq. ft. 2,614 sq. ft. $54
2017-09-15 Single Family 308 Stillman Bridgeport, CT 06608 $120,000 1,655 sq. ft. 1,742 sq. ft. $73
2017-09-15 Single Family Cape Cod 2701 Park Bridgeport, CT 06604 $229,900 2,330 sq. ft. 15,246 sq. ft. $99
2017-09-14 Single Family Colonial 179 Seltsam Bridgeport, CT 06606 $210,000 1,608 sq. ft. 10,019 sq. ft. $131
2017-09-14 Single Family Colonial; Victorian 2148 North Bridgeport, CT 06604 $250,000 2,986 sq. ft. 12,197 sq. ft. $84
2017-09-09 Single Family Colonial 77 Hallock Bridgeport, CT 06606 $199,900 2,446 sq. ft. 10,454 sq. ft. $82
2017-09-08 Single Family Half Duplex 145 Taft Bridgeport, CT 06606 $119,900 1,391 sq. ft. 2,178 sq. ft. $86
2017-09-07 Single Family Cape Cod 85 Powell Bridgeport, CT 06604 $289,000 2,836 sq. ft. 13,504 sq. ft. $102
2017-09-07 Single Family Cape Cod 80 Benson Bridgeport, CT 06606 $199,999 1,958 sq. ft. 3,920 sq. ft. $102
2017-09-07 Single Family Half Duplex 200 Westfield Bridgeport, CT 06606 $155,000 1,710 sq. ft. 3,049 sq. ft. $91
2017-08-29 Single Family Colonial 115 Sailors Bridgeport, CT 06605 $445,000 3,680 sq. ft. 15,246 sq. ft. $121
2017-08-27 Single Family Colonial 260 Carroll Bridgeport, CT 06607 $85,000 1,049 sq. ft. 2,178 sq. ft. $81
2017-08-25 Single Family Colonial 1215 Capitol Bridgeport, CT 06606 $249,900 2,026 sq. ft. 4,792 sq. ft. $123
2017-08-24 Single Family Colonial 260 Saunders Bridgeport, CT 06606 $219,900 1,191 sq. ft. 4,792 sq. ft. $185
2017-08-24 Single Family Mediterranean 69 Sailors Bridgeport, CT 06605 $998,000 4,715 sq. ft. 26,136 sq. ft. $212
2017-08-21 Single Family Ranch 207 Hillcrest Bridgeport, CT 06606 $115,000 2,528 sq. ft. 5,663 sq. ft. $45
2017-08-17 Single Family Cape Cod 5 Velvet Bridgeport, CT 06610 $215,000 1,807 sq. ft. 4,792 sq. ft. $119
2017-08-17 Single Family Colonial 100 Lorraine Bridgeport, CT 06604 $178,480 1,948 sq. ft. 4,792 sq. ft. $92
2017-08-15 Single Family Cape Cod 139 Alfred Bridgeport, CT 06605 $289,400 1,947 sq. ft. 4,792 sq. ft. $149
2017-08-11 Single Family Colonial 370 Lake Bridgeport, CT 06605 $389,500 2,161 sq. ft. 6,098 sq. ft. $180
2017-08-11 Single Family Cape Cod; Contemporary 82 Old Battery Bridgeport, CT 06605 $650,000 3,664 sq. ft. 24,829 sq. ft. $177
2017-08-11 Single Family Colonial 435 Westfield Bridgeport, CT 06606 $210,000 1,986 sq. ft. 5,227 sq. ft. $106
2017-08-10 Single Family Colonial; Tudor 135 Brooklawn Bridgeport, CT 06604 $379,900 3,018 sq. ft. 17,424 sq. ft. $126
2017-08-10 Single Family Cape Cod 361 Pequonnock Bridgeport, CT 06604 $115,000 858 sq. ft. 1,742 sq. ft. $134
2017-08-08 Single Family Colonial 298 Stillman Bridgeport, CT 06608 $99,999 1,368 sq. ft. 1,742 sq. ft. $73
2017-08-05 Single Family Colonial 35 Battery Park Bridgeport, CT 06605 $799,900 3,041 sq. ft. 17,860 sq. ft. $263
2017-08-05 Single Family Ranch 105 Battery Park Bridgeport, CT 06605 $899,900 2,806 sq. ft. 15,246 sq. ft. $321
2017-08-04 Single Family Ranch 166 Pearsall Bridgeport, CT 06605 $569,000 2,000 sq. ft. 14,810 sq. ft. $284
2017-08-04 Single Family Colonial 40 Anchorage Bridgeport, CT 06605 $950,000 5,158 sq. ft. 72,745 sq. ft. $184
2017-08-04 Single Family Colonial 245 Sailors Bridgeport, CT 06605 $689,000 2,876 sq. ft. 16,117 sq. ft. $240
2017-08-04 Single Family Colonial 55 Grovers Bridgeport, CT 06605 $1,399,000 5,000 sq. ft. 14,810 sq. ft. $280
2017-08-04 Single Family Colonial 600 Brooklawn Bridgeport, CT 06604 $475,000 3,912 sq. ft. 14,375 sq. ft. $121
2017-08-04 Single Family Colonial 1950 Park Bridgeport, CT 06604 $399,900 3,839 sq. ft. 13,504 sq. ft. $104
2017-08-04 Single Family Colonial 176 Westfield Bridgeport, CT 06606 $280,000 2,792 sq. ft. 7,405 sq. ft. $100
2017-08-04 Single Family Colonial 24 Dale Bridgeport, CT 06606 $267,500 1,776 sq. ft. 4,792 sq. ft. $151
2017-08-04 Single Family Colonial 122 Cornhill Bridgeport, CT 06606 $295,000 2,368 sq. ft. 4,792 sq. ft. $125
2017-08-04 Single Family Colonial 210 Moffitt Bridgeport, CT 06606 $289,000 2,000 sq. ft. 4,792 sq. ft. $144
2017-08-04 Single Family Ranch 129 Forestview Bridgeport, CT 06606 $205,000 1,144 sq. ft. 14,375 sq. ft. $179
2017-08-04 Single Family Victorian 716 Wood Bridgeport, CT 06604 $199,000 2,001 sq. ft. 6,098 sq. ft. $99
2017-08-04 Single Family Contemporary; Raised Ranch 1314 Chopsey Hill Bridgeport, CT 06606 $210,995 2,010 sq. ft. 9,148 sq. ft. $105
2017-08-04 Single Family Colonial 87 Atwater Bridgeport, CT 06604 $175,000 2,084 sq. ft. 4,792 sq. ft. $84
2017-08-04 Single Family Colonial 141 Eaton Bridgeport, CT 06604 $224,900 1,962 sq. ft. 3,485 sq. ft. $115
2017-08-04 Single Family Colonial; Victorian 512 Washington Bridgeport, CT 06608 $249,000 4,152 sq. ft. 18,295 sq. ft. $60
2017-08-04 Single Family Cape Cod 191 Quarry Bridgeport, CT 06606 $199,900 2,104 sq. ft. 4,792 sq. ft. $95
2017-08-04 Single Family Colonial 486 Savoy Bridgeport, CT 06606 $229,900 2,268 sq. ft. 4,792 sq. ft. $101
2017-08-04 Single Family Cape Cod 100 Wilson Bridgeport, CT 06605 $215,000 2,361 sq. ft. 4,792 sq. ft. $91
2017-08-04 Single Family Colonial 69 Amsterdam Bridgeport, CT 06606 $249,000 1,291 sq. ft. 4,792 sq. ft. $193
2017-08-04 Single Family Colonial 197 Elizabeth Bridgeport, CT 06610 $159,900 1,840 sq. ft. 4,792 sq. ft. $87
2017-08-04 Single Family Cape Cod 1184 Lindley Bridgeport, CT 06606 $200,000 1,781 sq. ft. 3,049 sq. ft. $112
2017-08-04 Single Family Cape Cod 235 Lynne Bridgeport, CT 06610 $169,900 1,152 sq. ft. 9,148 sq. ft. $147
2017-08-04 Single Family Colonial 976 Wood Bridgeport, CT 06604 $164,900 1,882 sq. ft. 4,792 sq. ft. $88
2017-08-04 Single Family Cape Cod 422 Truman Bridgeport, CT 06606 $180,000 1,409 sq. ft. 4,792 sq. ft. $128
2017-08-04 Single Family Colonial 215 Cottage Bridgeport, CT 06605 $149,000 1,525 sq. ft. 6,098 sq. ft. $98
2017-08-04 Single Family Colonial 116 Bancroft Bridgeport, CT 06604 $125,000 1,301 sq. ft. 5,227 sq. ft. $96
2017-08-04 Single Family Colonial 56 Pixlee Bridgeport, CT 06610 $159,000 1,776 sq. ft. 4,356 sq. ft. $90
2017-08-04 Single Family Cape Cod 219 Berkshire Bridgeport, CT 06608 $139,900 1,398 sq. ft. 1,742 sq. ft. $100
2017-08-04 Single Family 132 Bishop Bridgeport, CT 06607 $149,000 984 sq. ft. 1,742 sq. ft. $151
2017-08-04 Single Family Ranch 1490 Wood Bridgeport, CT 06604 $135,000 1,156 sq. ft. 4,356 sq. ft. $117
2017-08-04 Single Family Half Duplex 133 Prince Bridgeport, CT 06610 $110,000 1,148 sq. ft. 2,614 sq. ft. $96
2017-08-04 Single Family Colonial 290 Stillman Bridgeport, CT 06608 $100,000 1,074 sq. ft. 1,742 sq. ft. $93
2017-08-04 Single Family Half Duplex 399 Jane Bridgeport, CT 06608 $79,900 1,659 sq. ft. 2,614 sq. ft. $48
2017-08-04 Single Family Half Duplex 405 Jane Bridgeport, CT 06608 $77,900 1,659 sq. ft. 2,614 sq. ft. $47
2017-07-30 Single Family Cape 1411 Madison Avenue Bridgeport, CT 06606 $269,000 1,152 sq. ft. 5,227 sq. ft. $234
2017-07-29 Single Family Colonial 220 Black Rock Avenue Bridgeport, CT 06605 $199,000 2,416 sq. ft. 5,227 sq. ft. $82
2017-07-29 Single Family Colonial 228 Black Rock Bridgeport, CT 06605 $129,000 1,763 sq. ft. 5,336 sq. ft. $73
2017-07-29 Single Family Victorian 716 Wood Avenue Bridgeport, CT 06604 $250,000 2,001 sq. ft. 6,098 sq. ft. $125
2017-07-28 Single Family Colonial 1950 Park Avenue Bridgeport, CT 06604 $399,900 3,839 sq. ft. 13,504 sq. ft. $104
2017-07-28 Single Family Cape 101 Wedgewood Place Bridgeport, CT 06606 $180,000 1,473 sq. ft. 12,197 sq. ft. $122
2017-07-28 Single Family Ranch 129 Forestview Road Bridgeport, CT 06606 $205,000 1,144 sq. ft. 14,375 sq. ft. $179
2017-07-28 Single Family Cape 35 Thurston Street Bridgeport, CT 06605 $179,000 1,382 sq. ft. 4,792 sq. ft. $130
2017-07-27 Single Family Colonial 1480 Laurel Avenue Bridgeport, CT 06604 $199,000 1,478 sq. ft. 6,098 sq. ft. $135
2017-07-27 Single Family Raised Ranch 73 Kathryn Drive Bridgeport, CT 06610 $289,000 1,411 sq. ft. 7,405 sq. ft. $205
2017-07-27 Single Family Colonial 600 Brooklawn Avenue Bridgeport, CT 06604 $475,000 3,912 sq. ft. 14,375 sq. ft. $121
2017-07-26 Single Family Contemporary; Raised Ranch 1314 Chopsey Hill Road Bridgeport, CT 06606 $215,995 2,010 sq. ft. 9,148 sq. ft. $107
2017-07-26 Single Family Cape 281 Goddard Avenue Bridgeport, CT 06610 $99,000 1,399 sq. ft. 5,227 sq. ft. $71
2017-07-26 Single Family Cape 160 Pine Point Drive Bridgeport, CT 06606 $179,999 1,936 sq. ft. 10,019 sq. ft. $93
2017-07-26 Single Family Colonial 1773 Central Avenue Bridgeport, CT 06610 $62,000 1,038 sq. ft. 1,307 sq. ft. $60
2017-07-25 Single Family Half-Duplex 936 Lindley Street Bridgeport, CT 06606 $229,900 1,604 sq. ft. 2,614 sq. ft. $143
2017-07-25 Single Family Half Duplex 936 Lindley Bridgeport, CT 06606 $220,000 1,604 sq. ft. 2,518 sq. ft. $137
2017-07-23 Single Family Colonial 39 Hewitt Court Bridgeport, CT 06607 $139,500 1,462 sq. ft. 4,792 sq. ft. $95
2017-07-22 Single Family Ranch 436 Pearl Harbor Street Bridgeport, CT 06610 $99,000 936 sq. ft. 5,227 sq. ft. $106
2017-07-21 Single Family Colonial 57 Victory Street Bridgeport, CT 06606 $139,900 1,398 sq. ft. 4,792 sq. ft. $100
2017-07-21 Single Family Ranch 393 Nancy Drive Bridgeport, CT 06606 $299,900 1,809 sq. ft. 9,583 sq. ft. $166
2017-07-21 Single Family Ranch 36 Pond Street Bridgeport, CT 06606 $194,500 1,542 sq. ft. 4,792 sq. ft. $126
2017-07-21 Single Family Cape 750 Birmingham Street Bridgeport, CT 06606 $249,500 1,432 sq. ft. 4,792 sq. ft. $174
2017-07-21 Single Family Ranch 101 Bell Street Bridgeport, CT 06610 $74,500 864 sq. ft. 3,920 sq. ft. $86
2017-07-21 Single Family Cape 276 Funston Avenue Bridgeport, CT 06606 $189,900 1,804 sq. ft. 9,583 sq. ft. $105
2017-07-21 Single Family Ranch 270 Valley Avenue Bridgeport, CT 06606 $285,000 2,522 sq. ft. 4,792 sq. ft. $113
2017-07-20 Single Family Ranch 56 Camp Place Bridgeport, CT 06606 $223,000 1,008 sq. ft. 10,019 sq. ft. $221
2017-07-20 Single Family Colonial 320 Lake Avenue Bridgeport, CT 06605 $425,000 2,152 sq. ft. 5,663 sq. ft. $197
2017-07-19 Single Family Colonial 197 Elizabeth Street Bridgeport, CT 06610 $178,900 1,840 sq. ft. 4,792 sq. ft. $97
2017-07-19 Single Family Colonial 270 Ridgefield Avenue Bridgeport, CT 06610 $160,000 1,802 sq. ft. 6,534 sq. ft. $89
2017-07-18 Single Family Ranch 54 May Street Bridgeport, CT 06606 $169,000 1,072 sq. ft. 4,792 sq. ft. $158
2017-07-17 Single Family Cape 35 Hemlock Street Bridgeport, CT 06605 $199,500 1,117 sq. ft. 5,227 sq. ft. $179
2017-07-17 Single Family Ranch 505 Peet Street Bridgeport, CT 06606 $155,600 1,248 sq. ft. 4,792 sq. ft. $125
2017-07-17 Single Family Colonial 231 Balmforth Street Bridgeport, CT 06605 $599,000 3,062 sq. ft. 25,265 sq. ft. $196
2017-07-17 Single Family Colonial 141 Eaton Street Bridgeport, CT 06604 $239,900 1,962 sq. ft. 3,485 sq. ft. $122
2017-07-14 Single Family Ranch 107 Travis Drive Bridgeport, CT 06606 $224,500 1,104 sq. ft. 5,663 sq. ft. $203
2017-07-14 Single Family Cape; Colonial 620 Gurdon Street Bridgeport, CT 06606 $199,000 1,446 sq. ft. 5,227 sq. ft. $138
2017-07-14 Single Family Cape 384 Thorme Street Bridgeport, CT 06606 $269,000 1,443 sq. ft. 4,792 sq. ft. $186
2017-07-14 Single Family Cape 469 Lincoln Avenue Bridgeport, CT 06606 $239,900 1,319 sq. ft. 4,792 sq. ft. $182
2017-07-14 Single Family Half-Duplex 133 Prince Street Bridgeport, CT 06610 $100,000 1,148 sq. ft. 2,614 sq. ft. $87
2017-07-14 Single Family Cape 365 Chopsey Hill Road Bridgeport, CT 06606 $199,900 1,188 sq. ft. 6,098 sq. ft. $168
2017-07-14 Single Family Colonial 598 William Street Bridgeport, CT 06608 $116,900 2,044 sq. ft. 3,049 sq. ft. $57
2017-07-13 Single Family Half-Duplex 279 East Avenue Bridgeport, CT 06610 $34,700 1,215 sq. ft. 2,614 sq. ft. $29
2017-07-13 Single Family Split Level 390 Priscilla Street Bridgeport, CT 06610 $150,000 960 sq. ft. 2,614 sq. ft. $156
2017-07-13 Single Family Colonial 87 Atwater Street Bridgeport, CT 06604 $205,000 2,084 sq. ft. 4,792 sq. ft. $98
2017-07-13 Single Family Cape 526 Thorme Street Bridgeport, CT 06606 $174,900 1,735 sq. ft. 4,792 sq. ft. $101
2017-07-11 Single Family Colonial 128 Denver Avenue Bridgeport, CT 06605 $83,000 1,685 sq. ft. 2,614 sq. ft. $49
2017-07-10 Single Family Colonial 31 Brooklawn Place Bridgeport, CT 06604 $280,000 3,524 sq. ft. 12,632 sq. ft. $79
2017-07-10 Single Family Ranch 65 Battery Park Drive Bridgeport, CT 06605 $595,000 2,653 sq. ft. 16,553 sq. ft. $224
2017-07-09 Single Family Cape 198 Lincoln Avenue Bridgeport, CT 06606 $179,900 1,328 sq. ft. 4,356 sq. ft. $135
2017-07-07 Single Family Colonial; Victorian 512 Washington Avenue Bridgeport, CT 06608 $249,000 4,152 sq. ft. 18,295 sq. ft. $60
2017-07-06 Single Family Colonial 615 Grand Street Bridgeport, CT 06604 $205,000 1,934 sq. ft. 3,485 sq. ft. $106
2017-07-06 Single Family Ranch 44 Dogwood Drive Bridgeport, CT 06606 $184,000 1,700 sq. ft. 8,276 sq. ft. $108
2017-07-06 Single Family Colonial 857 Gilman Street Bridgeport, CT 06605 $429,000 1,908 sq. ft. 26,572 sq. ft. $225
2017-07-06 Single Family Colonial 721 Platt Street Bridgeport, CT 06606 $229,995 1,536 sq. ft. 10,019 sq. ft. $150
2017-07-05 Single Family Colonial 1130 Laurel Avenue Bridgeport, CT 06604 $228,000 2,732 sq. ft. 6,970 sq. ft. $83
2017-07-05 Single Family Mediterranean 69 Sailors Lane Bridgeport, CT 06605 $998,000 4,715 sq. ft. 26,136 sq. ft. $212
2017-07-05 Single Family Colonial 176 Westfield Avenue Bridgeport, CT 06606 $295,000 2,792 sq. ft. 7,405 sq. ft. $106
2017-07-05 Single Family Colonial 147 Woodbine Circle Bridgeport, CT 06606 $285,000 1,568 sq. ft. 9,148 sq. ft. $182
2017-07-01 Single Family Cape 3020 Old Town Road Bridgeport, CT 06606 $285,000 1,896 sq. ft. 11,326 sq. ft. $150
2017-07-01 Single Family Colonial 1428 Iranistan Avenue Bridgeport, CT 06605 $94,900 1,625 sq. ft. 2,614 sq. ft. $58
2017-06-30 Single Family Colonial 91 Arthur Street Bridgeport, CT 06605 $307,000 1,120 sq. ft. 4,792 sq. ft. $274
2017-06-30 Single Family Ranch 233 Crestview Drive Bridgeport, CT 06606 $349,500 1,249 sq. ft. 19,602 sq. ft. $280
2017-06-30 Single Family Colonial 160 Ortega Avenue Bridgeport, CT 06606 $220,000 1,598 sq. ft. 5,663 sq. ft. $138
2017-06-29 Single Family Ranch 72 Scott Avenue Bridgeport, CT 06606 $175,000 1,797 sq. ft. 7,405 sq. ft. $97
2017-06-28 Single Family Townhouse 80 Asylum Street Bridgeport, CT 06610 $80,000 960 sq. ft. 1,307 sq. ft. $83
2017-06-28 Single Family Cape 29 Harvey Street Bridgeport, CT 06610 $99,900 1,326 sq. ft. 4,792 sq. ft. $75
2017-06-28 Single Family Colonial 149 Ash Street Bridgeport, CT 06605 $119,900 1,888 sq. ft. 3,920 sq. ft. $64
2017-06-27 Single Family Cape 191 Quarry Street Bridgeport, CT 06606 $209,900 1,404 sq. ft. 4,792 sq. ft. $150
2017-06-27 Single Family Ranch 904 Westfield Avenue Bridgeport, CT 06606 $239,000 1,222 sq. ft. 7,841 sq. ft. $196
2017-06-27 Single Family Cape 55 Travis Drive Bridgeport, CT 06606 $229,000 1,576 sq. ft. 7,405 sq. ft. $145
2017-06-24 Single Family Colonial 110 Marcel Street Bridgeport, CT 06606 $375,000 2,814 sq. ft. 5,663 sq. ft. $133
2017-06-24 Single Family Colonial 110 Marcel Bridgeport, CT 06606 $350,000 2,814 sq. ft. 5,632 sq. ft. $124
2017-06-24 Single Family Cape 288 Pasadena Place Bridgeport, CT 06610 $225,000 1,236 sq. ft. 9,148 sq. ft. $182
2017-06-23 Single Family Colonial; Contemporary 190 Moffitt Street Bridgeport, CT 06606 $299,900 1,344 sq. ft. 4,792 sq. ft. $223
2017-06-22 Single Family Colonial 24 Dale Street Bridgeport, CT 06606 $269,900 1,252 sq. ft. 4,792 sq. ft. $216
2017-06-22 Single Family Ranch 276 Adams Street Bridgeport, CT 06607 $69,900 548 sq. ft. 2,614 sq. ft. $128
2017-06-21 Single Family Half-Duplex 130 Lansing Street Bridgeport, CT 06606 $149,900 1,184 sq. ft. 2,614 sq. ft. $127
2017-06-21 Single Family Colonial 55 Carnegie Avenue Bridgeport, CT 06610 $209,900 1,278 sq. ft. 4,792 sq. ft. $164
2017-06-21 Single Family Cape 47 Richfield Road Bridgeport, CT 06606 $184,900 1,224 sq. ft. 9,583 sq. ft. $151
2017-06-19 Single Family Colonial 1822 Noble Avenue Bridgeport, CT 06610 $299,900 3,980 sq. ft. 13,939 sq. ft. $75
2017-06-19 Single Family Cape 221 Pasadena Place Bridgeport, CT 06610 $249,900 1,152 sq. ft. 8,712 sq. ft. $217
2017-06-19 Single Family Raised Ranch 1207 Chopsey Hill Bridgeport, CT 06606 $223,000 1,626 sq. ft. 7,545 sq. ft. $137
2017-06-16 Single Family Colonial 565 Garfield Avenue Bridgeport, CT 06606 $194,700 1,008 sq. ft. 3,920 sq. ft. $193
2017-06-16 Single Family Cape 280 Sunshine Circle Bridgeport, CT 06606 $219,900 1,152 sq. ft. 10,890 sq. ft. $191
2017-06-15 Single Family Ranch 1620 Norman Street Bridgeport, CT 06604 $260,000 1,980 sq. ft. 11,326 sq. ft. $131
2017-06-15 Single Family Colonial 114 Glendale Avenue Bridgeport, CT 06606 $225,000 1,780 sq. ft. 4,792 sq. ft. $126
2017-06-15 Single Family Cape 295 Nutmeg Road Bridgeport, CT 06610 $230,000 1,224 sq. ft. 9,148 sq. ft. $188
2017-06-14 Single Family Colonial 695 Iranistan Avenue Bridgeport, CT 06605 $229,900 2,052 sq. ft. 5,663 sq. ft. $112
2017-06-13 Single Family Colonial 215 Cottage Street Bridgeport, CT 06605 $157,000 1,525 sq. ft. 6,098 sq. ft. $103
2017-06-12 Single Family Cape 606 Ruth Street Bridgeport, CT 06606 $164,900 1,290 sq. ft. 6,098 sq. ft. $128
2017-06-12 Single Family Colonial 79 Fern Street Bridgeport, CT 06606 $264,900 2,076 sq. ft. 4,792 sq. ft. $128
2017-06-12 Single Family Cape 30 Quince Street Bridgeport, CT 06606 $169,900 1,207 sq. ft. 4,792 sq. ft. $141
2017-06-12 Single Family Cape 59 Cloverhill Avenue Bridgeport, CT 06606 $179,900 1,152 sq. ft. 4,792 sq. ft. $156
2017-06-10 Single Family Cape 491 Indian Avenue Bridgeport, CT 06606 $119,900 1,170 sq. ft. 7,405 sq. ft. $102
2017-06-09 Single Family Cape 99 Valley Circle Bridgeport, CT 06606 $239,900 1,700 sq. ft. 8,712 sq. ft. $141
2017-06-07 Single Family Colonial 78 Manhattan Avenue Bridgeport, CT 06606 $207,900 1,337 sq. ft. 5,663 sq. ft. $156
2017-06-07 Single Family Colonial 45 Cornell Street Bridgeport, CT 06606 $202,400 1,756 sq. ft. 6,098 sq. ft. $115
2017-06-07 Single Family Ranch 166 Pearsall Place Bridgeport, CT 06605 $569,000 2,000 sq. ft. 14,810 sq. ft. $284
2017-06-06 Single Family Colonial 577 Fairview Avenue Bridgeport, CT 06606 $239,000 1,363 sq. ft. 8,276 sq. ft. $175
2017-06-02 Single Family Colonial 1124 Lindley Street Bridgeport, CT 06606 $229,000 1,793 sq. ft. 4,792 sq. ft. $128
2017-06-01 Single Family Cape; Colonial 170 Lakeside Drive Bridgeport, CT 06606 $247,000 1,445 sq. ft. 11,326 sq. ft. $171
2017-06-01 Single Family Ranch 636 Merritt Street Bridgeport, CT 06606 $155,000 744 sq. ft. 4,792 sq. ft. $208
2017-06-01 Single Family Ranch 602 Garfield Avenue Bridgeport, CT 06606 $179,900 1,361 sq. ft. 6,534 sq. ft. $132
2017-05-31 Single Family Colonial 59 Bennett Street Bridgeport, CT 06605 $280,000 1,428 sq. ft. 5,663 sq. ft. $196
2017-05-30 Single Family Cape 40 Renwick Drive Bridgeport, CT 06604 $210,000 1,152 sq. ft. 7,405 sq. ft. $182
2017-05-25 Single Family Colonial 227 Hollister Avenue Bridgeport, CT 06607 $129,900 1,196 sq. ft. 5,227 sq. ft. $109
2017-05-19 Single Family Colonial 635 Gilman Street Bridgeport, CT 06605 $244,300 2,206 sq. ft. 11,761 sq. ft. $111
2017-05-19 Single Family Colonial 1564 Iranistan Avenue Bridgeport, CT 06604 $275,000 1,424 sq. ft. 12,197 sq. ft. $193
2017-05-18 Single Family Colonial 249 Harral Avenue Bridgeport, CT 06604 $179,000 2,282 sq. ft. 5,663 sq. ft. $78
2017-05-18 Single Family Cape 337 Alpine Street Bridgeport, CT 06610 $179,900 1,280 sq. ft. 4,792 sq. ft. $141
2017-05-18 Single Family Colonial 609 Bishop Avenue Bridgeport, CT 06610 $169,500 1,116 sq. ft. 3,049 sq. ft. $152
2017-05-16 Single Family Cape 230 Glenwood Avenue Bridgeport, CT 06610 $234,900 1,259 sq. ft. 6,098 sq. ft. $187
2017-05-12 Single Family Colonial 69 Amsterdam Avenue Bridgeport, CT 06606 $249,000 1,291 sq. ft. 4,792 sq. ft. $193
2017-05-12 Single Family Ranch 56 Camp Bridgeport, CT 06606 $223,000 1,008 sq. ft. 9,853 sq. ft. $221
2017-05-11 Single Family Colonial 134 Bishop Avenue Bridgeport, CT 06610 $189,000 2,544 sq. ft. 4,792 sq. ft. $74
2017-05-11 Single Family Cape 140 Sunshine Circle Bridgeport, CT 06606 $209,000 1,152 sq. ft. 10,019 sq. ft. $181
2017-05-11 Single Family Townhouse 132 Bishop Avenue Bridgeport, CT 06607 $149,000 984 sq. ft. 1,742 sq. ft. $151
2017-05-11 Single Family Colonial 42 Merchant Street Bridgeport, CT 06604 $269,500 2,236 sq. ft. 4,792 sq. ft. $121
2017-05-10 Single Family Half-Duplex 250 Hansen Avenue Bridgeport, CT 06605 $189,500 1,280 sq. ft. 2,614 sq. ft. $148
2017-05-04 Single Family Colonial 435 Westfield Avenue Bridgeport, CT 06606 $225,000 1,986 sq. ft. 5,227 sq. ft. $113
2017-05-03 Single Family Cape 280 Nutmeg Road Bridgeport, CT 06610 $219,000 1,152 sq. ft. 8,276 sq. ft. $190
2017-05-02 Single Family Cape 844 Huntington Turnpike Bridgeport, CT 06610 $149,900 1,556 sq. ft. 9,148 sq. ft. $96
2017-04-29 Single Family Cape 422 Truman Street Bridgeport, CT 06606 $200,000 1,409 sq. ft. 4,792 sq. ft. $142
2017-04-28 Single Family Contemporary 70 Pine Point Drive Bridgeport, CT 06606 $280,000 1,526 sq. ft. 15,246 sq. ft. $183
2017-04-27 Single Family Colonial 142 Aldine Avenue Bridgeport, CT 06604 $249,000 2,165 sq. ft. 4,792 sq. ft. $115
2017-04-27 Single Family Colonial 686 Laurel Avenue Bridgeport, CT 06604 $84,900 2,909 sq. ft. 6,534 sq. ft. $29
2017-04-27 Single Family Cape 76 Judson Place Bridgeport, CT 06610 $102,000 1,280 sq. ft. 6,098 sq. ft. $80
2017-04-26 Single Family Colonial 85 Staples Street Bridgeport, CT 06604 $204,000 1,500 sq. ft. 4,356 sq. ft. $136
2017-04-25 Single Family Colonial 1444 Stratford Avenue Bridgeport, CT 06607 $59,900 1,745 sq. ft. 2,614 sq. ft. $34
2017-04-20 Single Family Ranch 103 Springdale Street Bridgeport, CT 06606 $159,900 1,165 sq. ft. 5,663 sq. ft. $137
2017-04-18 Single Family Raised Ranch 315 Holland Road Bridgeport, CT 06610 $229,900 2,400 sq. ft. 15,246 sq. ft. $96
2017-04-14 Single Family Ranch 361 Pequonnock Street Bridgeport, CT 06604 $135,000 858 sq. ft. 1,742 sq. ft. $157
2017-04-13 Single Family Cape 3170 Old Town Road Bridgeport, CT 06606 $189,900 1,587 sq. ft. 11,326 sq. ft. $120
2017-04-13 Single Family Colonial 73 Keeler Avenue Bridgeport, CT 06606 $174,900 1,635 sq. ft. 4,792 sq. ft. $107
2017-04-08 Single Family Colonial 976 Wood Avenue Bridgeport, CT 06604 $175,000 1,882 sq. ft. 4,792 sq. ft. $93
2017-04-06 Single Family Contemporary 109 Rocton Avenue Bridgeport, CT 06606 $200,000 1,382 sq. ft. 6,098 sq. ft. $145
2017-04-06 Single Family Cape; Ranch 120 Cloverhill Avenue Bridgeport, CT 06606 $175,000 1,360 sq. ft. 4,792 sq. ft. $129
2017-04-05 Single Family Cape 235 Lynne Place Bridgeport, CT 06610 $175,000 1,152 sq. ft. 9,148 sq. ft. $152
2017-04-05 Single Family Cape 45 Yacht Street Bridgeport, CT 06605 $149,000 1,152 sq. ft. 4,792 sq. ft. $129
2017-03-31 Single Family Colonial 290 Stillman Street Bridgeport, CT 06608 $100,000 1,074 sq. ft. 1,742 sq. ft. $93
2017-03-31 Single Family Colonial 446 Pond Street Bridgeport, CT 06606 $141,000 2,000 sq. ft. 14,810 sq. ft. $70
2017-03-30 Single Family Colonial 451 Lake Avenue Bridgeport, CT 06605 $393,000 1,762 sq. ft. 7,841 sq. ft. $223
2017-03-30 Single Family Mediterranean 48 Old Battery Road Bridgeport, CT 06605 $1,495,000 6,028 sq. ft. 16,117 sq. ft. $248
2017-03-29 Single Family Colonial 816 North Avenue Bridgeport, CT 06606 $280,000 2,675 sq. ft. 7,405 sq. ft. $105
2017-03-28 Single Family Cape 117 Englewood Avenue Bridgeport, CT 06606 $224,900 1,491 sq. ft. 6,970 sq. ft. $151
2017-03-25 Single Family Cape 219 Berkshire Avenue Bridgeport, CT 06608 $139,900 1,398 sq. ft. 1,742 sq. ft. $100
2017-03-24 Single Family Colonial 319 Cleveland Avenue Bridgeport, CT 06604 $249,900 1,572 sq. ft. 6,098 sq. ft. $159
2017-03-23 Single Family Colonial 645 Ruth Street Bridgeport, CT 06606 $227,727 1,516 sq. ft. 4,792 sq. ft. $150
2017-03-22 Single Family Raised Ranch 140 Lourmel Street Bridgeport, CT 06606 $289,900 1,690 sq. ft. 6,098 sq. ft. $172
2017-03-15 Single Family Colonial 505 Salem Street Bridgeport, CT 06606 $224,000 1,305 sq. ft. 3,920 sq. ft. $172
2017-03-13 Single Family Colonial 425 Platt Street Bridgeport, CT 06606 $249,900 2,376 sq. ft. 9,148 sq. ft. $105
2017-03-11 Single Family Ranch 343 Sailors Lane Bridgeport, CT 06605 $549,900 2,151 sq. ft. 13,939 sq. ft. $256
2017-03-02 Single Family Colonial 61 Seabright Avenue Bridgeport, CT 06605 $494,900 1,510 sq. ft. 4,356 sq. ft. $328
2017-03-01 Single Family Cape 100 Wilson Street Bridgeport, CT 06605 $215,000 1,470 sq. ft. 4,792 sq. ft. $146
2017-02-24 Single Family Colonial 344 Dover Street Bridgeport, CT 06610 $142,500 1,262 sq. ft. 3,485 sq. ft. $113
2017-02-21 Single Family Colonial 486 Savoy Street Bridgeport, CT 06606 $239,900 2,268 sq. ft. 4,792 sq. ft. $106
2017-02-21 Single Family Cape 619 Birmingham Street Bridgeport, CT 06606 $237,000 1,184 sq. ft. 4,792 sq. ft. $200
2017-02-20 Single Family Ranch 936 Chopsey Hill Road Bridgeport, CT 06606 $249,900 994 sq. ft. 6,970 sq. ft. $251
2017-02-18 Single Family Cape 25 Cornhill Street Bridgeport, CT 06606 $179,900 1,670 sq. ft. 4,792 sq. ft. $108
2017-02-17 Single Family Colonial 70 Dixon Street Bridgeport, CT 06604 $199,900 1,800 sq. ft. 4,792 sq. ft. $111
2017-02-16 Single Family Colonial 210 Moffitt Street Bridgeport, CT 06606 $289,000 2,000 sq. ft. 4,792 sq. ft. $144
2017-02-15 Single Family Colonial 87 Seabright Avenue Bridgeport, CT 06605 $749,000 1,939 sq. ft. 4,356 sq. ft. $386
2017-02-12 Single Family Colonial 586 Wayne Street Bridgeport, CT 06606 $174,900 1,382 sq. ft. 6,970 sq. ft. $127
2017-02-04 Single Family Ranch 80 Battery Park Drive Bridgeport, CT 06605 $469,900 2,393 sq. ft. 14,375 sq. ft. $196
2017-02-02 Single Family Colonial 125 Livingston Place Bridgeport, CT 06610 $186,900 1,473 sq. ft. 4,792 sq. ft. $127
2017-02-01 Single Family Colonial 331 Lake Avenue Bridgeport, CT 06605 $399,900 1,837 sq. ft. 6,098 sq. ft. $218
2017-02-01 Single Family Colonial 35 Battery Park Drive Bridgeport, CT 06605 $849,900 3,041 sq. ft. 17,860 sq. ft. $279
2017-02-01 Single Family Cape 49 Clover Hill Avenue Bridgeport, CT 06606 $246,000 1,516 sq. ft. 4,792 sq. ft. $162
2017-01-31 Single Family Tudor 195 Manhattan Avenue Bridgeport, CT 06606 $239,000 1,994 sq. ft. 4,356 sq. ft. $120
2017-01-30 Single Family Ranch 95 Pershing Avenue Bridgeport, CT 06606 $189,900 1,152 sq. ft. 7,405 sq. ft. $165
2017-01-29 Single Family Ranch; Bungalow 441 High Ridge Drive Bridgeport, CT 06606 $64,900 795 sq. ft. 6,534 sq. ft. $82
2017-01-26 Single Family Colonial 245 Grandview Avenue Bridgeport, CT 06606 $125,000 1,248 sq. ft. 4,792 sq. ft. $100
2017-01-19 Single Family Colonial 40 Anchorage Drive Bridgeport, CT 06605 $950,000 5,158 sq. ft. 72,745 sq. ft. $184
2017-01-17 Single Family Colonial 195 Battery Park Drive Bridgeport, CT 06605 $399,900 2,849 sq. ft. 21,344 sq. ft. $140
2017-01-16 Single Family Ranch 69 Woodbine Circle Bridgeport, CT 06606 $139,000 988 sq. ft. 8,712 sq. ft. $141
2017-01-15 Single Family Colonial 525 Clinton Avenue Bridgeport, CT 06605 $250,000 2,500 sq. ft. 14,375 sq. ft. $100
2017-01-05 Single Family Ranch 87 Toni Place Bridgeport, CT 06610 $125,000 1,822 sq. ft. 6,098 sq. ft. $69
2016-12-17 Single Family Ranch 1174 Chopsey Hill Road Bridgeport, CT 06606 $82,800 1,196 sq. ft. 10,019 sq. ft. $69
2016-12-13 Single Family Colonial 390 Birmingham Street Bridgeport, CT 06606 $110,000 1,284 sq. ft. 4,792 sq. ft. $86
2016-12-02 Single Family Cape 166 Tesiny Circle Bridgeport, CT 06606 $220,000 1,341 sq. ft. 11,761 sq. ft. $164
2016-12-02 Single Family Colonial 181 Hazelwood Bridgeport, CT 06605 $164,900 2,472 sq. ft. 4,491 sq. ft. $67
2016-11-04 Single Family Townhouse 26 Velvet Street Bridgeport, CT 06610 $149,000 1,232 sq. ft. 2,614 sq. ft. $121
2016-10-30 Single Family Cape 65 Seaside Avenue Bridgeport, CT 06605 $359,900 1,724 sq. ft. 5,227 sq. ft. $209
2016-10-19 Single Family Ranch 835 Gilman Street Bridgeport, CT 06605 $349,900 1,759 sq. ft. 7,405 sq. ft. $199
2016-10-14 Single Family Raised Ranch 390 Platt Street Bridgeport, CT 06606 $215,000 1,068 sq. ft. 6,534 sq. ft. $201
2016-10-05 Single Family Half-Duplex 399 Jane Street Bridgeport, CT 06608 $79,900 1,659 sq. ft. 2,614 sq. ft. $48
2016-10-05 Single Family Half-Duplex 405 Jane Street Bridgeport, CT 06608 $77,900 1,659 sq. ft. 2,614 sq. ft. $47
2016-10-01 Single Family Victorian 734 Clinton Avenue Bridgeport, CT 06604 $450,000 3,152 sq. ft. 13,068 sq. ft. $143
2016-09-28 Single Family Colonial 175 Battery Park Drive Bridgeport, CT 06605 $839,000 4,277 sq. ft. 20,038 sq. ft. $196
2016-09-16 Single Family Colonial 340 Summit Street Bridgeport, CT 06606 $79,900 1,034 sq. ft. 1,742 sq. ft. $77
2016-08-27 Single Family Raised Ranch 293 Thorme Street Bridgeport, CT 06606 $145,000 1,184 sq. ft. 7,405 sq. ft. $122
2016-07-29 Single Family Cape 145 Baker Street Bridgeport, CT 06606 $208,900 1,229 sq. ft. 4,792 sq. ft. $170
2016-07-27 Single Family Colonial 245 Sailors Lane Bridgeport, CT 06605 $689,000 2,876 sq. ft. 16,117 sq. ft. $240
2016-05-18 Single Family Colonial Bridgeport, CT $179,500 1,505 sq. ft. 4,792 sq. ft. $119
2016-05-17 Single Family Colonial Bridgeport, CT $125,000 1,301 sq. ft. 5,227 sq. ft. $96
2016-04-27 Single Family Colonial 1069 Briarwood Avenue Bridgeport, CT 06604 $279,000 2,332 sq. ft. 6,098 sq. ft. $120
2016-03-15 Single Family Cape 1155 Huntington Turnpike Bridgeport, CT 06610 $259,000 1,692 sq. ft. 27,878 sq. ft. $153
2015-11-17 Single Family Cape 66 Berkeley Place Bridgeport, CT 06610 $210,000 1,369 sq. ft. 3,485 sq. ft. $153
2015-08-27 Single Family Colonial 1550 Laurel Avenue Bridgeport, CT 06604 $169,900 1,820 sq. ft. 3,485 sq. ft. $93
2015-04-15 Single Family Colonial 1500 Norman Street Bridgeport, CT 06604 $190,000 2,500 sq. ft. 5,227 sq. ft. $76
2015-01-09 Single Family Colonial 55 Grovers Avenue Bridgeport, CT 06605 $1,399,000 5,000 sq. ft. 14,810 sq. ft. $280